createdAt,value
2022-11-17T00:02:01.365Z,3.47
2022-11-17T00:04:30.740Z,2.85
2022-11-17T00:06:59.173Z,3.25
2022-11-17T00:09:27.176Z,2.65
2022-11-17T00:12:12.585Z,4.32
2022-11-17T00:14:41.332Z,3.58
2022-11-17T00:17:11.441Z,2.83
2022-11-17T00:19:58.608Z,2.17
2022-11-17T00:22:27.064Z,3.17
2022-11-17T00:24:55.001Z,3.90
2022-11-17T00:27:22.863Z,3.30
2022-11-17T00:29:50.781Z,3.95
2022-11-17T00:32:38.005Z,4.30
2022-11-17T00:35:08.227Z,2.92
2022-11-17T00:37:59.735Z,3.08
2022-11-17T00:40:27.612Z,2.92
2022-11-17T00:42:55.494Z,2.38
2022-11-17T00:45:23.423Z,3.53
2022-11-17T00:47:51.306Z,3.45
2022-11-17T00:50:20.564Z,3.63
2022-11-17T00:52:48.522Z,3.58
2022-11-17T00:55:16.801Z,3.70
2022-11-17T00:57:44.710Z,4.20
2022-11-17T01:00:13.695Z,5.15
2022-11-17T01:02:44.118Z,4.47
2022-11-17T01:05:12.068Z,4.80
2022-11-17T01:07:41.291Z,4.50
2022-11-17T01:10:10.278Z,5.32
2022-11-17T01:12:38.516Z,4.65
2022-11-17T01:15:07.012Z,3.55
2022-11-17T01:17:34.850Z,3.80
2022-11-17T01:20:02.868Z,5.10
2022-11-17T01:22:30.972Z,5.05
2022-11-17T01:25:01.511Z,4.70
2022-11-17T01:27:29.458Z,4.38
2022-11-17T01:29:57.361Z,3.40
2022-11-17T01:32:25.146Z,3.72
2022-11-17T01:34:53.066Z,4.88
2022-11-17T01:37:20.945Z,5.95
2022-11-17T01:39:49.039Z,5.10
2022-11-17T01:42:20.636Z,4.53
2022-11-17T01:45:03.503Z,4.70
2022-11-17T01:47:37.413Z,5.50
2022-11-17T01:50:11.190Z,4.35
2022-11-17T01:52:41.058Z,4.47
2022-11-17T01:55:11.064Z,5.57
2022-11-17T01:57:47.070Z,5.20
2022-11-17T02:00:15.901Z,3.88
2022-11-17T02:02:45.807Z,3.55
2022-11-17T02:05:27.694Z,2.70
2022-11-17T02:07:57.421Z,2.97
2022-11-17T02:10:25.436Z,3.42
2022-11-17T02:12:55.120Z,4.07
2022-11-17T02:15:23.932Z,5.00
2022-11-17T02:17:54.181Z,4.05
2022-11-17T02:20:31.647Z,3.63
2022-11-17T02:23:29.968Z,3.70
2022-11-17T02:26:30.252Z,3.63
2022-11-17T02:29:05.861Z,3.22
2022-11-17T02:31:44.196Z,3.28
2022-11-17T02:34:24.797Z,4.90
2022-11-17T02:37:00.317Z,4.97
2022-11-17T02:39:34.653Z,3.65
2022-11-17T02:44:40.039Z,2.63
2022-11-17T02:47:12.817Z,3.28
2022-11-17T02:49:45.630Z,3.38
2022-11-17T02:52:14.090Z,3.95
2022-11-17T02:54:41.978Z,3.80
2022-11-17T02:57:30.968Z,3.50
2022-11-17T03:00:02.946Z,4.95
2022-11-17T03:02:49.781Z,3.38
2022-11-17T03:05:24.268Z,4.70
2022-11-17T03:08:06.780Z,4.55
2022-11-17T03:10:46.535Z,3.78
2022-11-17T03:13:20.593Z,3.90
2022-11-17T03:15:55.917Z,4.15
2022-11-17T03:18:30.278Z,3.55
2022-11-17T03:23:37.459Z,4.70
2022-11-17T03:26:11.104Z,3.20
2022-11-17T03:28:40.436Z,3.60
2022-11-17T03:31:11.427Z,3.97
2022-11-17T03:33:41.561Z,3.40
2022-11-17T03:36:14.507Z,3.75
2022-11-17T03:38:48.395Z,3.38
2022-11-17T03:41:19.397Z,3.75
2022-11-17T03:43:51.837Z,4.25
2022-11-17T03:46:24.013Z,3.42
2022-11-17T03:48:56.783Z,3.65
2022-11-17T03:51:28.078Z,4.18
2022-11-17T03:53:57.667Z,4.60
2022-11-17T03:56:35.602Z,4.50
2022-11-17T03:59:10.410Z,4.72
2022-11-17T04:01:40.383Z,6.18
2022-11-17T04:04:08.293Z,5.82
2022-11-17T04:06:36.152Z,5.68
2022-11-17T04:09:05.963Z,5.57
2022-11-17T04:11:51.098Z,4.93
2022-11-17T04:14:36.602Z,4.57
2022-11-17T04:17:05.926Z,6.18
2022-11-17T04:19:33.782Z,4.85
2022-11-17T04:22:01.707Z,6.05
2022-11-17T04:24:29.649Z,6.85
2022-11-17T04:27:15.347Z,6.40
2022-11-17T04:29:43.270Z,4.68
2022-11-17T04:32:12.491Z,6.13
2022-11-17T04:34:42.495Z,6.03
2022-11-17T04:37:17.303Z,5.63
2022-11-17T04:39:45.763Z,4.80
2022-11-17T04:42:12.972Z,5.90
2022-11-17T04:44:40.886Z,5.85
2022-11-17T04:47:08.822Z,5.75
2022-11-17T04:49:38.103Z,4.60
2022-11-17T04:52:06.722Z,7.00
2022-11-17T04:54:34.688Z,4.93
2022-11-17T04:57:02.539Z,6.40
2022-11-17T04:59:30.419Z,6.90
2022-11-17T05:02:04.190Z,4.75
2022-11-17T05:04:51.046Z,5.57
2022-11-17T05:07:20.497Z,6.25
2022-11-17T05:09:48.530Z,5.68
2022-11-17T05:12:33.862Z,4.93
2022-11-17T05:15:01.767Z,5.25
2022-11-17T05:17:28.698Z,5.95
2022-11-17T05:19:57.363Z,7.65
2022-11-17T05:22:44.016Z,7.80
2022-11-17T05:25:11.890Z,5.68
2022-11-17T05:27:39.745Z,5.35
2022-11-17T05:30:09.553Z,6.47
2022-11-17T05:32:37.677Z,7.95
2022-11-17T05:35:06.300Z,6.80
2022-11-17T05:37:35.597Z,6.40
2022-11-17T05:40:03.383Z,7.10
2022-11-17T05:42:31.624Z,8.63
2022-11-17T05:44:59.432Z,7.53
2022-11-17T05:47:27.335Z,6.50
2022-11-17T05:49:55.162Z,7.80
2022-11-17T05:52:23.089Z,7.72
2022-11-17T05:54:52.345Z,7.00
2022-11-17T05:57:29.535Z,8.00
2022-11-17T06:00:01.680Z,8.27
2022-11-17T06:02:33.022Z,6.43
2022-11-17T06:05:01.013Z,8.05
2022-11-17T06:07:29.422Z,9.98
2022-11-17T06:09:58.793Z,9.48
2022-11-17T06:12:26.711Z,11.75
2022-11-17T06:14:55.003Z,11.32
2022-11-17T06:17:27.939Z,11.02
2022-11-17T06:20:02.911Z,9.38
2022-11-17T06:22:31.749Z,10.82
2022-11-17T06:25:02.982Z,10.85
2022-11-17T06:27:33.014Z,10.88
2022-11-17T06:30:03.395Z,8.68
2022-11-17T06:32:32.608Z,8.52
2022-11-17T06:35:02.592Z,10.23
2022-11-17T06:37:30.412Z,9.18
2022-11-17T06:39:58.273Z,8.00
2022-11-17T06:42:41.483Z,11.77
2022-11-17T06:45:10.531Z,11.60
2022-11-17T06:47:38.412Z,8.93
2022-11-17T06:50:07.032Z,10.05
2022-11-17T06:52:35.037Z,11.73
2022-11-17T06:55:13.394Z,11.30
2022-11-17T06:57:42.832Z,9.98
2022-11-17T07:00:12.330Z,11.00
2022-11-17T07:02:40.199Z,9.07
2022-11-17T07:05:08.422Z,9.60
2022-11-17T07:07:36.265Z,10.88
2022-11-17T07:10:04.517Z,8.30
2022-11-17T07:12:32.273Z,9.13
2022-11-17T07:15:01.514Z,12.50
2022-11-17T07:17:29.599Z,10.07
2022-11-17T07:19:57.746Z,10.65
2022-11-17T07:22:25.904Z,9.15
2022-11-17T07:24:53.868Z,9.35
2022-11-17T07:27:21.711Z,12.52
2022-11-17T07:29:49.496Z,11.52
2022-11-17T07:32:18.649Z,9.68
2022-11-17T07:34:46.666Z,11.02
2022-11-17T07:37:14.484Z,9.93
2022-11-17T07:39:42.313Z,11.00
2022-11-17T07:42:10.328Z,13.02
2022-11-17T07:44:38.170Z,10.63
2022-11-17T07:47:06.323Z,10.52
2022-11-17T07:49:35.475Z,9.77
2022-11-17T07:52:03.309Z,11.32
2022-11-17T07:54:31.106Z,9.20
2022-11-17T07:56:58.934Z,9.65
2022-11-17T07:59:26.964Z,11.23
2022-11-17T08:01:54.874Z,8.98
2022-11-17T08:04:23.343Z,7.35
2022-11-17T08:06:52.608Z,8.25
2022-11-17T08:09:20.529Z,6.72
2022-11-17T08:11:48.627Z,5.72
2022-11-17T08:14:16.501Z,7.68
2022-11-17T08:16:44.300Z,6.50
2022-11-17T08:19:12.330Z,7.15
2022-11-17T08:21:41.125Z,5.63
2022-11-17T08:24:10.575Z,6.10
2022-11-17T08:26:38.783Z,6.05
2022-11-17T08:29:06.954Z,6.53
2022-11-17T08:31:34.749Z,6.60
2022-11-17T08:34:02.557Z,6.65
2022-11-17T08:36:30.332Z,4.78
2022-11-17T08:38:58.868Z,6.68
2022-11-17T08:41:28.036Z,5.93
2022-11-17T08:43:55.848Z,5.65
2022-11-17T08:46:23.961Z,5.80
2022-11-17T08:48:56.913Z,4.50
2022-11-17T08:51:25.219Z,4.80
2022-11-17T08:53:53.077Z,6.32
2022-11-17T08:56:21.234Z,6.45
2022-11-17T08:58:50.537Z,6.25
2022-11-17T09:01:18.545Z,6.05
2022-11-17T09:03:48.334Z,5.00
2022-11-17T09:06:17.767Z,6.55
2022-11-17T09:08:47.437Z,5.30
2022-11-17T09:11:16.640Z,4.22
2022-11-17T09:13:45.630Z,4.65
2022-11-17T09:16:15.488Z,5.25
2022-11-17T09:18:43.532Z,4.50
2022-11-17T09:21:13.152Z,4.30
2022-11-17T09:23:41.064Z,3.63
2022-11-17T09:26:11.116Z,3.38
2022-11-17T09:28:39.363Z,4.20
2022-11-17T09:31:08.648Z,3.90
2022-11-17T09:33:38.489Z,5.07
2022-11-17T09:36:07.724Z,4.05
2022-11-17T09:38:36.163Z,7.47
2022-11-17T09:41:19.084Z,6.10
2022-11-17T09:43:52.962Z,7.43
2022-11-17T09:46:26.061Z,6.22
2022-11-17T09:49:04.140Z,9.48
2022-11-17T09:51:34.330Z,8.43
2022-11-17T09:54:08.902Z,6.97
2022-11-17T09:59:11.990Z,7.55
2022-11-17T10:01:40.179Z,9.60
2022-11-17T10:04:13.489Z,10.10
2022-11-17T10:06:43.448Z,8.85
2022-11-17T10:09:25.143Z,9.02
2022-11-17T10:11:55.470Z,9.90
2022-11-17T10:14:23.805Z,11.50
2022-11-17T10:16:54.058Z,8.18
2022-11-17T10:19:25.471Z,9.38
2022-11-17T10:21:55.644Z,7.60
2022-11-17T10:24:37.054Z,9.32
2022-11-17T10:27:07.333Z,8.18
2022-11-17T10:29:35.446Z,9.93
2022-11-17T10:32:10.110Z,9.00
2022-11-17T10:34:41.623Z,10.63
2022-11-17T10:37:26.434Z,9.07
2022-11-17T10:42:32.559Z,9.10
2022-11-17T10:45:02.629Z,9.00
2022-11-17T10:47:34.467Z,8.55
2022-11-17T10:50:25.167Z,8.43
2022-11-17T10:52:54.542Z,8.18
2022-11-17T10:55:27.894Z,8.80
2022-11-17T10:58:00.112Z,7.35
2022-11-17T11:00:33.595Z,7.07
2022-11-17T11:03:16.924Z,5.95
2022-11-17T11:06:01.425Z,5.25
2022-11-17T11:08:35.404Z,4.85
2022-11-17T11:11:08.447Z,4.50
2022-11-17T11:13:40.441Z,5.13
2022-11-17T11:16:10.599Z,4.65
2022-11-17T11:18:39.440Z,4.72
2022-11-17T11:21:16.378Z,5.50
2022-11-17T11:23:52.064Z,4.97
2022-11-17T11:26:47.083Z,3.25
2022-11-17T11:29:26.005Z,3.35
2022-11-17T11:32:10.633Z,2.80
2022-11-17T11:37:16.146Z,2.90
2022-11-17T11:39:55.523Z,3.05
2022-11-17T11:42:47.794Z,2.35
2022-11-17T11:45:24.135Z,3.13
2022-11-17T11:48:14.291Z,3.08
2022-11-17T11:50:51.930Z,4.90
2022-11-17T11:53:28.701Z,3.15
2022-11-17T11:56:10.148Z,3.75
2022-11-17T11:58:44.813Z,2.85
2022-11-17T12:01:14.083Z,4.00
2022-11-17T12:03:49.656Z,3.92
2022-11-17T12:06:42.138Z,3.10
2022-11-17T12:09:32.323Z,3.40
2022-11-17T12:12:01.717Z,3.40
2022-11-17T12:14:31.349Z,2.72
2022-11-17T12:17:07.137Z,3.92
2022-11-17T12:19:54.674Z,2.88
2022-11-17T12:23:03.338Z,3.60
2022-11-17T12:25:36.081Z,3.17
2022-11-17T12:28:29.802Z,3.90
2022-11-17T12:31:03.727Z,2.92
2022-11-17T12:34:24.664Z,3.75
2022-11-17T12:37:18.885Z,5.15
2022-11-17T12:40:01.876Z,3.80
2022-11-17T12:42:33.028Z,4.95
2022-11-17T12:45:09.386Z,3.08
2022-11-17T12:47:39.342Z,3.20
2022-11-17T12:50:46.118Z,3.42
2022-11-17T12:53:24.946Z,2.38
2022-11-17T12:56:31.814Z,2.10
2022-11-17T12:59:24.660Z,2.50
2022-11-17T13:02:00.426Z,2.25
2022-11-17T13:04:36.041Z,2.75
2022-11-17T13:07:06.663Z,2.00
2022-11-17T13:09:42.360Z,1.95
2022-11-17T13:12:12.151Z,1.80
2022-11-17T13:14:54.103Z,1.75
2022-11-17T13:20:22.900Z,1.60
2022-11-17T13:23:02.484Z,1.85
2022-11-17T13:29:27.006Z,1.95
2022-11-17T13:32:25.052Z,2.20
2022-11-17T13:34:57.660Z,2.53
2022-11-17T13:37:27.171Z,1.92
2022-11-17T13:40:02.396Z,1.75
2022-11-17T13:42:34.367Z,1.20
2022-11-17T13:45:06.982Z,1.42
2022-11-17T13:47:46.533Z,1.70
2022-11-17T13:50:34.845Z,1.80
2022-11-17T13:53:06.379Z,1.52
2022-11-17T13:55:35.410Z,2.17
2022-11-17T13:58:06.632Z,2.03
2022-11-17T14:00:37.328Z,2.00
2022-11-17T14:03:27.440Z,2.40
2022-11-17T14:05:56.869Z,1.63
2022-11-17T14:08:28.593Z,1.92
2022-11-17T14:11:15.915Z,2.90
2022-11-17T14:13:46.700Z,2.30
2022-11-17T14:16:24.422Z,1.55
2022-11-17T14:19:05.283Z,1.75
2022-11-17T14:22:00.389Z,1.65
2022-11-17T14:24:28.916Z,1.80
2022-11-17T14:26:56.821Z,2.25
2022-11-17T14:29:25.124Z,1.40
2022-11-17T14:31:53.112Z,2.00
2022-11-17T14:34:25.054Z,1.70
2022-11-17T14:36:54.930Z,2.35
2022-11-17T14:39:23.484Z,1.73
2022-11-17T14:41:52.266Z,1.83
2022-11-17T14:44:23.304Z,2.00
2022-11-17T14:46:51.840Z,2.33
2022-11-17T14:49:24.107Z,1.90
2022-11-17T14:51:53.157Z,1.60
2022-11-17T14:54:21.085Z,1.80
2022-11-17T14:56:49.128Z,1.33
2022-11-17T14:59:43.965Z,1.80
2022-11-17T15:02:12.630Z,1.58
2022-11-17T15:04:50.952Z,1.83
2022-11-17T15:07:23.405Z,1.40
2022-11-17T15:09:51.512Z,1.27
2022-11-17T15:12:19.463Z,1.20
2022-11-17T15:14:51.795Z,1.63
2022-11-17T15:17:20.345Z,1.52
2022-11-17T15:19:49.787Z,1.08
2022-11-17T15:22:17.680Z,1.52
2022-11-17T15:24:46.684Z,1.27
2022-11-17T15:27:23.729Z,1.73
2022-11-17T15:29:51.643Z,1.67
2022-11-17T15:32:20.065Z,1.90
2022-11-17T15:34:49.306Z,1.30
2022-11-17T15:37:17.742Z,1.20
2022-11-17T15:39:53.697Z,1.70
2022-11-17T15:42:21.808Z,1.67
2022-11-17T15:44:49.653Z,2.03
2022-11-17T15:47:20.757Z,1.75
2022-11-17T15:49:50.265Z,2.05
2022-11-17T15:52:30.059Z,1.50
2022-11-17T15:55:07.010Z,1.00
2022-11-17T15:57:37.464Z,1.67
2022-11-17T16:00:06.898Z,1.35
2022-11-17T16:02:34.804Z,1.60
2022-11-17T16:05:04.416Z,1.45
2022-11-17T16:07:35.982Z,1.65
2022-11-17T16:10:07.486Z,1.55
2022-11-17T16:12:36.069Z,1.17
2022-11-17T16:15:09.494Z,1.60
2022-11-17T16:17:37.951Z,1.77
2022-11-17T16:20:09.042Z,1.40
2022-11-17T16:22:37.242Z,1.80
2022-11-17T16:25:07.251Z,2.10
2022-11-17T16:27:41.427Z,2.38
2022-11-17T16:32:39.123Z,1.23
2022-11-17T16:35:09.133Z,1.40
2022-11-17T16:37:41.318Z,2.00
2022-11-17T16:40:10.885Z,2.13
2022-11-17T16:42:41.158Z,1.80
2022-11-17T16:45:17.468Z,1.92
2022-11-17T16:47:45.484Z,2.20
2022-11-17T16:50:15.625Z,1.80
2022-11-17T16:52:43.456Z,2.08
2022-11-17T16:55:11.480Z,2.17
2022-11-17T16:57:40.046Z,1.85
2022-11-17T17:00:09.441Z,1.52
2022-11-17T17:02:37.282Z,2.38
2022-11-17T17:05:12.665Z,1.70
2022-11-17T17:07:48.262Z,1.92
2022-11-17T17:10:16.365Z,1.92
2022-11-17T17:12:46.774Z,1.80
2022-11-17T17:15:20.993Z,2.17
2022-11-17T17:17:51.493Z,1.70
2022-11-17T17:20:19.509Z,2.58
2022-11-17T17:22:51.356Z,2.00
2022-11-17T17:25:19.456Z,1.90
2022-11-17T17:27:47.349Z,2.20
2022-11-17T17:30:16.244Z,2.05
2022-11-17T17:32:44.277Z,1.40
2022-11-17T17:35:13.956Z,2.53
2022-11-17T17:37:41.710Z,1.70
2022-11-17T17:40:12.247Z,1.50
2022-11-17T17:42:50.402Z,2.08
2022-11-17T17:45:18.491Z,2.25
2022-11-17T17:47:47.267Z,1.88
2022-11-17T17:50:15.639Z,1.63
2022-11-17T17:52:43.599Z,1.38
2022-11-17T17:55:12.808Z,1.65
2022-11-17T17:57:40.826Z,1.42
2022-11-17T18:00:12.484Z,1.30
2022-11-17T18:02:40.710Z,1.52
2022-11-17T18:05:13.989Z,2.60
2022-11-17T18:07:42.318Z,2.10
2022-11-17T18:10:13.548Z,1.60
2022-11-17T18:12:44.835Z,1.38
2022-11-17T18:15:17.748Z,1.65
2022-11-17T18:17:53.102Z,2.08
2022-11-17T18:20:21.167Z,1.63
2022-11-17T18:22:49.109Z,1.73
2022-11-17T18:25:18.500Z,1.42
2022-11-17T18:27:46.810Z,1.50
2022-11-17T18:30:15.099Z,1.45
2022-11-17T18:32:48.890Z,1.77
2022-11-17T18:35:16.852Z,1.00
2022-11-17T18:37:44.872Z,1.60
2022-11-17T18:40:14.275Z,1.70
2022-11-17T18:42:46.471Z,2.42
2022-11-17T18:45:17.000Z,1.90
2022-11-17T18:47:45.335Z,2.20
2022-11-17T18:50:13.399Z,1.52
2022-11-17T18:52:47.713Z,1.58
2022-11-17T18:55:15.626Z,1.67
2022-11-17T18:57:45.216Z,2.25
2022-11-17T19:00:14.598Z,1.67
2022-11-17T19:02:42.672Z,1.17
2022-11-17T19:05:10.737Z,1.80
2022-11-17T19:07:39.055Z,1.80
2022-11-17T19:10:07.621Z,1.40
2022-11-17T19:12:40.244Z,1.55
2022-11-17T19:15:09.830Z,1.58
2022-11-17T19:17:38.010Z,1.25
2022-11-17T19:20:06.718Z,2.28
2022-11-17T19:22:37.303Z,1.50
2022-11-17T19:25:08.296Z,1.50
2022-11-17T19:27:36.146Z,1.73
2022-11-17T19:30:13.994Z,1.95
2022-11-17T19:32:48.664Z,1.27
2022-11-17T19:35:21.374Z,1.35
2022-11-17T19:37:50.896Z,1.67
2022-11-17T19:40:19.145Z,1.67
2022-11-17T19:42:49.126Z,1.90
2022-11-17T19:45:17.611Z,1.23
2022-11-17T19:47:46.961Z,1.52
2022-11-17T19:50:15.204Z,1.92
2022-11-17T19:52:43.511Z,2.55
2022-11-17T19:55:11.436Z,1.73
2022-11-17T19:57:42.113Z,1.98
2022-11-17T20:00:11.796Z,1.50
2022-11-17T20:02:42.508Z,1.63
2022-11-17T20:05:11.681Z,1.67
2022-11-17T20:07:42.533Z,1.85
2022-11-17T20:10:11.253Z,2.20
2022-11-17T20:12:43.311Z,2.35
2022-11-17T20:15:27.097Z,2.60
2022-11-17T20:17:59.210Z,2.50
2022-11-17T20:20:57.019Z,2.60
2022-11-17T20:23:25.014Z,3.55
2022-11-17T20:25:52.923Z,2.60
2022-11-17T20:28:34.113Z,1.65
2022-11-17T20:31:07.422Z,2.10
2022-11-17T20:34:01.457Z,1.98
2022-11-17T20:36:38.747Z,2.50
2022-11-17T20:39:07.969Z,1.90
2022-11-17T20:41:36.035Z,2.53
2022-11-17T20:44:04.350Z,1.60
2022-11-17T20:46:32.609Z,1.63
2022-11-17T20:49:01.021Z,1.80
2022-11-17T20:51:28.849Z,2.20
2022-11-17T20:53:58.045Z,2.00
2022-11-17T20:56:31.108Z,1.50
2022-11-17T20:59:01.588Z,1.88
2022-11-17T21:01:29.682Z,1.80
2022-11-17T21:03:57.682Z,2.08
2022-11-17T21:06:25.440Z,1.95
2022-11-17T21:08:54.129Z,2.30
2022-11-17T21:11:47.503Z,2.47
2022-11-17T21:14:18.949Z,2.53
2022-11-17T21:16:46.900Z,2.83
2022-11-17T21:19:15.676Z,2.13
2022-11-17T21:21:43.649Z,1.67
2022-11-17T21:24:11.731Z,1.70
2022-11-17T21:26:43.639Z,2.05
2022-11-17T21:29:11.456Z,2.92
2022-11-17T21:31:39.410Z,1.88
2022-11-17T21:34:16.573Z,2.35
2022-11-17T21:36:46.939Z,2.35
2022-11-17T21:39:18.448Z,2.42
2022-11-17T21:41:48.151Z,2.63
2022-11-17T21:44:16.020Z,2.97
2022-11-17T21:46:45.493Z,3.28
2022-11-17T21:49:16.094Z,3.60
2022-11-17T21:51:45.389Z,3.70
2022-11-17T21:54:13.261Z,2.22
2022-11-17T21:56:41.160Z,2.20
2022-11-17T21:59:16.487Z,3.15
2022-11-17T22:01:44.645Z,1.92
2022-11-17T22:04:15.908Z,1.80
2022-11-17T22:06:43.954Z,3.10
2022-11-17T22:09:14.963Z,2.80
2022-11-17T22:11:43.025Z,2.03
2022-11-17T22:14:20.676Z,2.80
2022-11-17T22:16:51.629Z,2.55
2022-11-17T22:19:21.018Z,2.80
2022-11-17T22:21:50.753Z,2.88
2022-11-17T22:24:19.243Z,2.35
2022-11-17T22:26:48.495Z,2.60
2022-11-17T22:29:19.828Z,3.38
2022-11-17T22:31:49.542Z,2.95
2022-11-17T22:34:18.553Z,3.42
2022-11-17T22:36:46.348Z,2.58
2022-11-17T22:39:14.549Z,2.65
2022-11-17T22:41:44.085Z,2.33
2022-11-17T22:44:14.435Z,2.75
2022-11-17T22:46:47.087Z,3.42
2022-11-17T22:49:17.123Z,2.40
2022-11-17T22:52:07.572Z,3.70
2022-11-17T22:54:36.048Z,3.05
2022-11-17T22:57:04.015Z,3.95
2022-11-17T22:59:32.365Z,2.83
2022-11-17T23:02:04.499Z,2.40
2022-11-17T23:04:33.891Z,2.97
2022-11-17T23:07:06.002Z,2.55
2022-11-17T23:09:41.469Z,2.28
2022-11-17T23:12:09.270Z,3.03
2022-11-17T23:14:37.227Z,3.30
2022-11-17T23:17:06.772Z,2.67
2022-11-17T23:19:34.832Z,3.42
2022-11-17T23:22:02.797Z,2.20
2022-11-17T23:24:30.606Z,3.78
2022-11-17T23:27:01.722Z,2.08
2022-11-17T23:29:38.519Z,2.92
2022-11-17T23:32:07.863Z,2.63
2022-11-17T23:34:35.722Z,2.67
2022-11-17T23:37:04.215Z,2.60
2022-11-17T23:39:32.400Z,3.95
2022-11-17T23:42:00.192Z,3.75
2022-11-17T23:44:28.153Z,3.28
2022-11-17T23:46:56.091Z,3.88
2022-11-17T23:49:25.347Z,3.40
2022-11-17T23:51:53.328Z,3.22
2022-11-17T23:54:22.129Z,3.50
2022-11-17T23:56:53.116Z,4.55
2022-11-17T23:59:27.083Z,3.15
